X  Schließen METAR Luftfahrt Wetterdaten     EDJA Memmingen Allgau Airport
Temperatur
-1°C Temperatur
-5°C Taupunkt
75% Feuchtigkeit



Wind
10 M/S
23 MPS
37 KM/S
20 KTS



210°
SSW
Aktuelle Wetterlage

Teilweise bewölkt Teilweise bewölkt
Luftdruck 1020.92 (hPa) - 30.15 (inHg)
Sichtweite 6.2 (Meile) - 10 (Km)
Flughafen
Flughafen Code EDJA

Position : Memmingen Allgau Airport
Entfernung: 50 (Km)

Metar:
EDJA 301020Z 21020KT 9999 FEW035 M01/M05 Q1021

Zeit: 30-01-2023 11:20 CET